createdAt,value
2019-06-20T00:00:53.301Z,1004.34
2019-06-20T00:01:53.309Z,1004.34
2019-06-20T00:02:53.330Z,1004.36
2019-06-20T00:03:53.319Z,1004.39
2019-06-20T00:04:53.312Z,1004.40
2019-06-20T00:05:53.313Z,1004.40
2019-06-20T00:06:53.329Z,1004.42
2019-06-20T00:07:53.327Z,1004.45
2019-06-20T00:08:53.332Z,1004.47
2019-06-20T00:09:53.325Z,1004.48
2019-06-20T00:10:53.337Z,1004.45
2019-06-20T00:11:53.331Z,1004.46
2019-06-20T00:13:00.448Z,1004.42
2019-06-20T00:13:53.333Z,1004.41
2019-06-20T00:14:53.338Z,1004.36
2019-06-20T00:15:53.361Z,1004.41
2019-06-20T00:16:53.344Z,1004.40
2019-06-20T00:17:53.371Z,1004.39
2019-06-20T00:18:53.345Z,1004.40
2019-06-20T00:19:53.366Z,1004.38
2019-06-20T00:20:53.358Z,1004.40
2019-06-20T00:21:53.359Z,1004.36
2019-06-20T00:22:53.378Z,1004.39
2019-06-20T00:23:53.381Z,1004.40
2019-06-20T00:24:53.566Z,1004.40
2019-06-20T00:25:53.376Z,1004.44
2019-06-20T00:26:53.387Z,1004.43
2019-06-20T00:27:53.385Z,1004.43
2019-06-20T00:28:53.389Z,1004.42
2019-06-20T00:29:53.399Z,1004.41
2019-06-20T00:30:53.377Z,1004.45
2019-06-20T00:31:53.384Z,1004.42
2019-06-20T00:32:53.394Z,1004.43
2019-06-20T00:33:53.416Z,1004.49
2019-06-20T00:34:53.411Z,1004.49
2019-06-20T00:35:53.416Z,1004.49
2019-06-20T00:36:53.440Z,1004.49
2019-06-20T00:37:53.424Z,1004.50
2019-06-20T00:38:53.416Z,1004.55
2019-06-20T00:39:53.414Z,1004.55
2019-06-20T00:40:53.405Z,1004.55
2019-06-20T00:41:53.421Z,1004.55
2019-06-20T00:42:53.426Z,1004.54
2019-06-20T00:43:53.421Z,1004.60
2019-06-20T00:44:53.428Z,1004.56
2019-06-20T00:45:53.417Z,1004.57
2019-06-20T00:46:53.435Z,1004.59
2019-06-20T00:47:53.420Z,1004.64
2019-06-20T00:48:53.506Z,1004.61
2019-06-20T00:49:53.440Z,1004.61
2019-06-20T00:50:53.431Z,1004.61
2019-06-20T00:51:53.438Z,1004.58
2019-06-20T00:52:53.469Z,1004.59
2019-06-20T00:53:53.440Z,1004.60
2019-06-20T00:54:53.442Z,1004.60
2019-06-20T00:55:53.459Z,1004.64
2019-06-20T00:56:53.440Z,1004.64
2019-06-20T00:57:53.450Z,1004.59
2019-06-20T00:58:53.452Z,1004.61
2019-06-20T00:59:53.469Z,1004.67
2019-06-20T01:00:53.468Z,1004.65
2019-06-20T01:01:53.464Z,1004.76
2019-06-20T01:02:53.579Z,1004.72
2019-06-20T01:03:53.477Z,1004.80
2019-06-20T01:04:53.460Z,1004.78
2019-06-20T01:05:53.482Z,1004.82
2019-06-20T01:06:53.674Z,1004.81
2019-06-20T01:07:53.678Z,1004.83
2019-06-20T01:08:53.469Z,1004.84
2019-06-20T01:09:53.480Z,1004.87
2019-06-20T01:10:53.489Z,1004.87
2019-06-20T01:11:53.493Z,1004.88
2019-06-20T01:12:53.492Z,1004.86
2019-06-20T01:13:53.487Z,1004.87
2019-06-20T01:14:53.576Z,1004.83
2019-06-20T01:15:53.523Z,1004.83
2019-06-20T01:16:53.691Z,1004.81
2019-06-20T01:17:53.498Z,1004.82
2019-06-20T01:18:53.613Z,1004.84
2019-06-20T01:19:53.517Z,1004.82
2019-06-20T01:20:53.508Z,1004.86
2019-06-20T01:21:53.504Z,1004.86
2019-06-20T01:22:53.508Z,1004.92
2019-06-20T01:23:53.508Z,1004.93
2019-06-20T01:24:53.518Z,1004.98
2019-06-20T01:25:53.720Z,1004.96
2019-06-20T01:26:53.529Z,1004.95
2019-06-20T01:27:53.545Z,1005.01
2019-06-20T01:28:53.521Z,1004.98
2019-06-20T01:29:53.525Z,1005.02
2019-06-20T01:30:53.543Z,1005.01
2019-06-20T01:31:53.534Z,1004.99
2019-06-20T01:32:53.744Z,1005.00
2019-06-20T01:33:53.550Z,1005.01
2019-06-20T01:34:53.536Z,1005.02
2019-06-20T01:35:53.549Z,1005.04
2019-06-20T01:36:53.554Z,1005.03
2019-06-20T01:37:53.546Z,1005.04
2019-06-20T01:38:53.556Z,1005.02
2019-06-20T01:39:53.552Z,1005.04
2019-06-20T01:40:53.563Z,1005.06
2019-06-20T01:41:53.558Z,1005.09
2019-06-20T01:42:53.576Z,1005.07
2019-06-20T01:43:53.572Z,1005.06
2019-06-20T01:44:53.565Z,1005.11
2019-06-20T01:45:53.595Z,1005.12
2019-06-20T01:46:53.569Z,1005.14
2019-06-20T01:47:53.573Z,1005.11
2019-06-20T01:48:53.581Z,1005.09
2019-06-20T01:49:53.589Z,1005.11
2019-06-20T01:50:53.596Z,1005.15
2019-06-20T01:51:53.612Z,1005.15
2019-06-20T01:52:53.599Z,1005.13
2019-06-20T01:53:53.583Z,1005.19
2019-06-20T01:54:53.591Z,1005.17
2019-06-20T01:55:53.604Z,1005.23
2019-06-20T01:56:53.798Z,1005.24
2019-06-20T01:57:53.610Z,1005.24
2019-06-20T01:58:53.614Z,1005.24
2019-06-20T01:59:53.606Z,1005.23
2019-06-20T02:00:53.619Z,1005.19
2019-06-20T02:01:53.607Z,1005.22
2019-06-20T02:02:53.627Z,1005.23
2019-06-20T02:03:53.615Z,1005.21
2019-06-20T02:04:53.623Z,1005.21
2019-06-20T02:05:53.834Z,1005.22
2019-06-20T02:06:53.829Z,1005.24
2019-06-20T02:07:53.648Z,1005.23
2019-06-20T02:08:53.643Z,1005.25
2019-06-20T02:09:53.629Z,1005.22
2019-06-20T02:10:53.640Z,1005.24
2019-06-20T02:11:53.851Z,1005.25
2019-06-20T02:12:53.636Z,1005.23
2019-06-20T02:14:06.434Z,1005.25
2019-06-20T02:14:53.643Z,1005.25
2019-06-20T02:15:53.649Z,1005.26
2019-06-20T02:16:53.647Z,1005.28
2019-06-20T02:17:53.671Z,1005.25
2019-06-20T02:18:53.658Z,1005.24
2019-06-20T02:19:53.663Z,1005.25
2019-06-20T02:20:53.670Z,1005.21
2019-06-20T02:21:53.667Z,1005.27
2019-06-20T02:22:53.661Z,1005.24
2019-06-20T02:23:53.688Z,1005.27
2019-06-20T02:24:53.672Z,1005.27
2019-06-20T02:25:53.669Z,1005.27
2019-06-20T02:26:53.686Z,1005.28
2019-06-20T02:27:53.879Z,1005.29
2019-06-20T02:28:53.681Z,1005.28
2019-06-20T02:29:53.693Z,1005.29
2019-06-20T02:30:53.688Z,1005.28
2019-06-20T02:31:53.700Z,1005.31
2019-06-20T02:32:53.688Z,1005.33
2019-06-20T02:33:53.691Z,1005.32
2019-06-20T02:34:53.696Z,1005.32
2019-06-20T02:35:53.702Z,1005.35
2019-06-20T02:36:53.752Z,1005.36
2019-06-20T02:37:53.718Z,1005.37
2019-06-20T02:38:53.715Z,1005.35
2019-06-20T02:39:53.719Z,1005.39
2019-06-20T02:40:53.707Z,1005.38
2019-06-20T02:41:53.725Z,1005.41
2019-06-20T02:42:53.732Z,1005.42
2019-06-20T02:43:53.727Z,1005.41
2019-06-20T02:44:53.730Z,1005.43
2019-06-20T02:45:53.723Z,1005.42
2019-06-20T02:46:53.724Z,1005.43
2019-06-20T02:47:53.748Z,1005.47
2019-06-20T02:48:53.733Z,1005.46
2019-06-20T02:49:53.743Z,1005.46
2019-06-20T02:50:53.752Z,1005.44
2019-06-20T02:51:53.940Z,1005.49
2019-06-20T02:52:53.748Z,1005.47
2019-06-20T02:53:53.739Z,1005.46
2019-06-20T02:54:53.954Z,1005.48
2019-06-20T02:55:53.775Z,1005.43
2019-06-20T02:56:53.972Z,1005.45
2019-06-20T02:57:53.966Z,1005.46
2019-06-20T02:58:53.759Z,1005.44
2019-06-20T02:59:53.768Z,1005.44
2019-06-20T03:00:53.759Z,1005.47
2019-06-20T03:01:53.972Z,1005.47
2019-06-20T03:02:53.786Z,1005.44
2019-06-20T03:03:53.784Z,1005.49
2019-06-20T03:04:53.988Z,1005.47
2019-06-20T03:05:53.777Z,1005.46
2019-06-20T03:06:53.779Z,1005.45
2019-06-20T03:07:53.784Z,1005.48
2019-06-20T03:08:53.786Z,1005.46
2019-06-20T03:09:53.790Z,1005.47
2019-06-20T03:10:53.996Z,1005.47
2019-06-20T03:11:53.790Z,1005.51
2019-06-20T03:12:53.801Z,1005.50
2019-06-20T03:13:54.013Z,1005.52
2019-06-20T03:14:54.000Z,1005.50
2019-06-20T03:15:53.802Z,1005.49
2019-06-20T03:16:54.001Z,1005.52
2019-06-20T03:17:53.801Z,1005.53
2019-06-20T03:18:54.010Z,1005.53
2019-06-20T03:19:53.821Z,1005.57
2019-06-20T03:20:53.849Z,1005.53
2019-06-20T03:21:53.811Z,1005.52
2019-06-20T03:22:53.831Z,1005.52
2019-06-20T03:23:53.831Z,1005.48
2019-06-20T03:24:53.825Z,1005.46
2019-06-20T03:25:53.823Z,1005.42
2019-06-20T03:26:53.831Z,1005.41
2019-06-20T03:27:54.043Z,1005.38
2019-06-20T03:28:53.847Z,1005.40
2019-06-20T03:29:53.829Z,1005.40
2019-06-20T03:30:53.840Z,1005.42
2019-06-20T03:31:53.839Z,1005.40
2019-06-20T03:32:53.848Z,1005.44
2019-06-20T03:33:53.843Z,1005.47
2019-06-20T03:34:53.848Z,1005.50
2019-06-20T03:35:53.846Z,1005.50
2019-06-20T03:36:53.844Z,1005.46
2019-06-20T03:37:53.849Z,1005.52
2019-06-20T03:38:53.876Z,1005.51
2019-06-20T03:39:53.873Z,1005.53
2019-06-20T03:40:53.854Z,1005.53
2019-06-20T03:41:53.867Z,1005.54
2019-06-20T03:42:53.863Z,1005.54
2019-06-20T03:43:53.890Z,1005.55
2019-06-20T03:45:02.278Z,1005.54
2019-06-20T03:45:53.889Z,1005.58
2019-06-20T03:46:53.896Z,1005.53
2019-06-20T03:47:54.099Z,1005.59
2019-06-20T03:48:53.873Z,1005.58
2019-06-20T03:49:54.091Z,1005.61
2019-06-20T03:50:53.877Z,1005.63
2019-06-20T03:51:53.885Z,1005.65
2019-06-20T03:52:53.886Z,1005.65
2019-06-20T03:53:53.897Z,1005.67
2019-06-20T03:54:53.890Z,1005.73
2019-06-20T03:55:53.902Z,1005.72
2019-06-20T03:56:53.893Z,1005.73
2019-06-20T03:57:53.886Z,1005.76
2019-06-20T03:58:53.904Z,1005.74
2019-06-20T03:59:54.109Z,1005.74
2019-06-20T04:00:53.900Z,1005.76
2019-06-20T04:01:53.916Z,1005.70
2019-06-20T04:02:53.907Z,1005.74
2019-06-20T04:03:54.110Z,1005.78
2019-06-20T04:04:53.906Z,1005.75
2019-06-20T04:05:53.923Z,1005.80
2019-06-20T04:06:53.928Z,1005.84
2019-06-20T04:07:54.134Z,1005.79
2019-06-20T04:08:53.918Z,1005.83
2019-06-20T04:09:53.912Z,1005.86
2019-06-20T04:10:54.130Z,1005.87
2019-06-20T04:11:53.951Z,1005.91
2019-06-20T04:12:54.123Z,1005.93
2019-06-20T04:13:53.927Z,1005.95
2019-06-20T04:14:53.928Z,1005.89
2019-06-20T04:15:53.929Z,1005.91
2019-06-20T04:16:54.156Z,1005.93
2019-06-20T04:17:53.949Z,1005.94
2019-06-20T04:18:53.945Z,1005.97
2019-06-20T04:19:53.945Z,1005.95
2019-06-20T04:20:53.941Z,1006.00
2019-06-20T04:21:53.944Z,1005.99
2019-06-20T04:22:53.946Z,1005.97
2019-06-20T04:23:53.965Z,1006.00
2019-06-20T04:24:53.947Z,1005.99
2019-06-20T04:25:53.959Z,1006.02
2019-06-20T04:26:53.980Z,1006.03
2019-06-20T04:27:53.958Z,1006.07
2019-06-20T04:28:53.970Z,1006.08
2019-06-20T04:29:53.965Z,1006.07
2019-06-20T04:30:53.990Z,1006.08
2019-06-20T04:31:53.965Z,1006.12
2019-06-20T04:32:53.980Z,1006.09
2019-06-20T04:33:53.972Z,1006.13
2019-06-20T04:34:54.182Z,1006.14
2019-06-20T04:35:54.178Z,1006.14
2019-06-20T04:36:54.197Z,1006.16
2019-06-20T04:37:54.189Z,1006.16
2019-06-20T04:38:53.980Z,1006.14
2019-06-20T04:39:53.987Z,1006.10
2019-06-20T04:40:53.991Z,1006.13
2019-06-20T04:41:53.998Z,1006.16
2019-06-20T04:42:54.193Z,1006.16
2019-06-20T04:43:53.998Z,1006.12
2019-06-20T04:44:54.010Z,1006.14
2019-06-20T04:45:54.213Z,1006.15
2019-06-20T04:46:54.000Z,1006.14
2019-06-20T04:47:54.211Z,1006.16
2019-06-20T04:48:54.054Z,1006.14
2019-06-20T04:49:54.019Z,1006.15
2019-06-20T04:50:54.018Z,1006.18
2019-06-20T04:51:54.014Z,1006.20
2019-06-20T04:52:54.047Z,1006.21
2019-06-20T04:53:54.235Z,1006.21
2019-06-20T04:54:54.231Z,1006.27
2019-06-20T04:55:54.031Z,1006.29
2019-06-20T04:56:54.240Z,1006.24
2019-06-20T04:57:54.024Z,1006.28
2019-06-20T04:58:54.044Z,1006.29
2019-06-20T04:59:54.040Z,1006.29
2019-06-20T05:00:54.246Z,1006.30
2019-06-20T05:01:54.056Z,1006.32
2019-06-20T05:02:54.050Z,1006.34
2019-06-20T05:03:54.042Z,1006.33
2019-06-20T05:04:54.039Z,1006.34
2019-06-20T05:05:54.067Z,1006.33
2019-06-20T05:06:54.049Z,1006.31
2019-06-20T05:07:54.068Z,1006.32
2019-06-20T05:08:54.057Z,1006.35
2019-06-20T05:09:54.071Z,1006.35
2019-06-20T05:10:54.054Z,1006.36
2019-06-20T05:11:54.280Z,1006.37
2019-06-20T05:12:56.033Z,1006.39
2019-06-20T05:13:54.285Z,1006.42
2019-06-20T05:14:54.075Z,1006.40
2019-06-20T05:15:54.073Z,1006.42
2019-06-20T05:16:54.073Z,1006.44
2019-06-20T05:17:54.078Z,1006.45
2019-06-20T05:18:54.100Z,1006.48
2019-06-20T05:19:54.082Z,1006.50
2019-06-20T05:20:54.089Z,1006.49
2019-06-20T05:21:54.302Z,1006.51
2019-06-20T05:22:54.085Z,1006.49
2019-06-20T05:23:54.090Z,1006.48
2019-06-20T05:24:54.111Z,1006.48
2019-06-20T05:25:54.295Z,1006.50
2019-06-20T05:26:54.116Z,1006.51
2019-06-20T05:27:54.096Z,1006.43
2019-06-20T05:28:54.106Z,1006.45
2019-06-20T05:29:54.118Z,1006.51
2019-06-20T05:30:54.123Z,1006.50
2019-06-20T05:31:54.138Z,1006.50
2019-06-20T05:32:54.121Z,1006.49
2019-06-20T05:33:54.123Z,1006.52
2019-06-20T05:34:54.120Z,1006.53
2019-06-20T05:35:54.135Z,1006.55
2019-06-20T05:36:54.121Z,1006.55
2019-06-20T05:37:54.125Z,1006.55
2019-06-20T05:38:54.128Z,1006.60
2019-06-20T05:39:54.133Z,1006.61
2019-06-20T05:40:54.135Z,1006.64
2019-06-20T05:41:54.134Z,1006.60
2019-06-20T05:42:54.147Z,1006.60
2019-06-20T05:43:54.341Z,1006.58
2019-06-20T05:44:54.154Z,1006.60
2019-06-20T05:46:08.239Z,1006.59
2019-06-20T05:47:11.536Z,1006.59
2019-06-20T05:47:54.173Z,1006.59
2019-06-20T05:48:54.179Z,1006.56
2019-06-20T05:49:54.999Z,1006.57
2019-06-20T05:50:54.180Z,1006.57
2019-06-20T05:51:54.162Z,1006.58
2019-06-20T05:52:54.373Z,1006.61
2019-06-20T05:53:54.372Z,1006.63
2019-06-20T05:54:54.172Z,1006.63
2019-06-20T05:55:54.168Z,1006.61
2019-06-20T05:56:54.173Z,1006.59
2019-06-20T05:57:54.182Z,1006.60
2019-06-20T05:58:54.380Z,1006.64
2019-06-20T05:59:54.392Z,1006.62
2019-06-20T06:00:54.195Z,1006.62
2019-06-20T06:01:56.432Z,1006.60
2019-06-20T06:02:54.210Z,1006.64
2019-06-20T06:03:54.391Z,1006.62
2019-06-20T06:04:54.207Z,1006.65
2019-06-20T06:05:54.690Z,1006.64
2019-06-20T06:06:54.400Z,1006.68
2019-06-20T06:07:54.206Z,1006.67
2019-06-20T06:08:54.202Z,1006.66
2019-06-20T06:09:54.410Z,1006.65
2019-06-20T06:10:54.210Z,1006.68
2019-06-20T06:11:54.242Z,1006.70
2019-06-20T06:12:54.213Z,1006.68
2019-06-20T06:13:54.221Z,1006.67
2019-06-20T06:14:54.296Z,1006.65
2019-06-20T06:15:54.220Z,1006.67
2019-06-20T06:16:54.232Z,1006.72
2019-06-20T06:17:54.225Z,1006.72
2019-06-20T06:18:55.077Z,1006.67
2019-06-20T06:19:54.234Z,1006.72
2019-06-20T06:20:54.236Z,1006.69
2019-06-20T06:21:54.436Z,1006.70
2019-06-20T06:22:54.468Z,1006.74
2019-06-20T06:23:54.247Z,1006.70
2019-06-20T06:24:54.452Z,1006.77
2019-06-20T06:25:54.261Z,1006.71
2019-06-20T06:26:59.318Z,1006.71
2019-06-20T06:27:54.305Z,1006.76
2019-06-20T06:28:54.461Z,1006.81
2019-06-20T06:29:54.257Z,1006.81
2019-06-20T06:30:54.303Z,1006.80
2019-06-20T06:31:54.268Z,1006.84
2019-06-20T06:32:54.266Z,1006.84
2019-06-20T06:33:54.473Z,1006.84
2019-06-20T06:34:54.278Z,1006.84
2019-06-20T06:35:54.288Z,1006.87
2019-06-20T06:36:54.510Z,1006.88
2019-06-20T06:37:54.501Z,1006.86
2019-06-20T06:38:54.293Z,1006.90
2019-06-20T06:39:54.290Z,1006.86
2019-06-20T06:40:54.291Z,1006.88
2019-06-20T06:41:54.292Z,1006.90
2019-06-20T06:42:54.327Z,1006.92
2019-06-20T06:43:54.301Z,1006.87
2019-06-20T06:44:54.516Z,1006.87
2019-06-20T06:45:54.356Z,1006.90
2019-06-20T06:46:59.269Z,1006.93
2019-06-20T06:47:54.512Z,1006.87
2019-06-20T06:48:54.317Z,1006.84
2019-06-20T06:49:54.518Z,1006.91
2019-06-20T06:50:54.332Z,1006.86
2019-06-20T06:51:54.398Z,1006.86
2019-06-20T06:52:54.340Z,1006.89
2019-06-20T06:53:54.320Z,1006.92
2019-06-20T06:54:54.556Z,1006.86
2019-06-20T06:55:54.366Z,1006.86
2019-06-20T06:56:54.343Z,1006.88
2019-06-20T06:57:54.377Z,1006.84
2019-06-20T06:58:54.347Z,1006.87
2019-06-20T06:59:54.336Z,1006.88
2019-06-20T07:00:54.543Z,1006.82
2019-06-20T07:01:54.558Z,1006.84
2019-06-20T07:02:54.348Z,1006.87
2019-06-20T07:03:54.384Z,1006.87
2019-06-20T07:04:54.364Z,1006.90
2019-06-20T07:05:54.364Z,1006.89
2019-06-20T07:06:54.359Z,1006.88
2019-06-20T07:07:54.384Z,1006.88
2019-06-20T07:08:54.362Z,1006.88
2019-06-20T07:09:54.368Z,1006.91
2019-06-20T07:10:54.369Z,1006.93
2019-06-20T07:11:54.382Z,1006.92
2019-06-20T07:12:54.609Z,1006.93
2019-06-20T07:13:54.397Z,1006.95
2019-06-20T07:14:54.378Z,1006.96
2019-06-20T07:15:54.387Z,1006.94
2019-06-20T07:17:00.167Z,1006.95
2019-06-20T07:17:54.388Z,1006.93
2019-06-20T07:18:54.423Z,1006.94
2019-06-20T07:19:54.628Z,1006.93
2019-06-20T07:20:54.411Z,1006.97
2019-06-20T07:21:54.411Z,1006.96
2019-06-20T07:22:54.427Z,1006.94
2019-06-20T07:23:54.405Z,1006.96
2019-06-20T07:24:54.611Z,1006.96
2019-06-20T07:25:54.410Z,1006.95
2019-06-20T07:26:54.430Z,1006.99
2019-06-20T07:27:54.417Z,1006.99
2019-06-20T07:28:54.422Z,1007.02
2019-06-20T07:29:54.421Z,1006.99
2019-06-20T07:30:54.428Z,1007.02
2019-06-20T07:31:54.457Z,1007.04
2019-06-20T07:32:54.458Z,1007.00
2019-06-20T07:33:54.461Z,1007.00
2019-06-20T07:34:54.445Z,1006.99
2019-06-20T07:35:54.466Z,1007.01
2019-06-20T07:36:54.457Z,1006.97
2019-06-20T07:37:54.459Z,1007.00
2019-06-20T07:38:54.469Z,1006.98
2019-06-20T07:39:54.473Z,1007.02
2019-06-20T07:40:54.452Z,1006.97
2019-06-20T07:41:54.457Z,1006.93
2019-06-20T07:42:54.470Z,1006.90
2019-06-20T07:43:54.469Z,1007.02
2019-06-20T07:44:54.466Z,1006.96
2019-06-20T07:46:02.689Z,1007.02
2019-06-20T07:46:54.483Z,1006.97
2019-06-20T07:47:54.480Z,1006.98
2019-06-20T07:48:54.512Z,1006.97
2019-06-20T07:49:54.497Z,1006.98
2019-06-20T07:50:54.510Z,1007.02
2019-06-20T07:51:54.496Z,1007.00
2019-06-20T07:53:02.034Z,1007.02
2019-06-20T07:53:54.500Z,1007.02
2019-06-20T07:54:54.537Z,1007.01
2019-06-20T07:55:54.526Z,1007.05
2019-06-20T07:56:54.519Z,1007.04
2019-06-20T07:57:54.502Z,1007.09
2019-06-20T07:58:54.504Z,1007.12
2019-06-20T07:59:54.527Z,1007.12
2019-06-20T08:00:54.523Z,1007.11
2019-06-20T08:01:54.532Z,1007.11
2019-06-20T08:02:54.551Z,1007.17
2019-06-20T08:03:54.526Z,1007.14
2019-06-20T08:04:54.653Z,1007.18
2019-06-20T08:05:54.562Z,1007.16
2019-06-20T08:06:54.545Z,1007.24
2019-06-20T08:07:54.546Z,1007.25
2019-06-20T08:08:54.538Z,1007.25
2019-06-20T08:09:54.553Z,1007.24
2019-06-20T08:10:54.557Z,1007.25
2019-06-20T08:11:54.544Z,1007.26
2019-06-20T08:12:54.568Z,1007.20
2019-06-20T08:13:54.577Z,1007.23
2019-06-20T08:14:54.560Z,1007.24
2019-06-20T08:15:54.559Z,1007.23
2019-06-20T08:16:54.562Z,1007.21
2019-06-20T08:17:54.586Z,1007.27
2019-06-20T08:18:54.602Z,1007.28
2019-06-20T08:19:54.589Z,1007.26
2019-06-20T08:20:54.580Z,1007.23
2019-06-20T08:21:54.579Z,1007.30
2019-06-20T08:22:54.579Z,1007.29
2019-06-20T08:23:54.586Z,1007.24
2019-06-20T08:24:54.949Z,1007.23
2019-06-20T08:25:55.746Z,1007.26
2019-06-20T08:26:56.754Z,1007.27
2019-06-20T08:27:56.033Z,1007.26
2019-06-20T08:29:10.154Z,1007.28
2019-06-20T08:29:54.627Z,1007.27
2019-06-20T08:30:54.620Z,1007.27
2019-06-20T08:31:55.951Z,1007.26
2019-06-20T08:32:56.153Z,1007.27
2019-06-20T08:33:55.976Z,1007.33
2019-06-20T08:34:56.616Z,1007.30
2019-06-20T08:35:56.927Z,1007.29
2019-06-20T08:36:57.217Z,1007.29
2019-06-20T08:37:56.078Z,1007.30
2019-06-20T08:38:56.950Z,1007.33
2019-06-20T08:39:56.792Z,1007.33
2019-06-20T08:40:56.555Z,1007.32
2019-06-20T08:41:55.445Z,1007.35
2019-06-20T08:42:55.348Z,1007.35
2019-06-20T08:43:55.557Z,1007.33
2019-06-20T08:44:56.250Z,1007.31
2019-06-20T08:45:55.274Z,1007.31
2019-06-20T08:46:56.387Z,1007.36
2019-06-20T08:47:56.478Z,1007.36
2019-06-20T08:48:54.941Z,1007.39
2019-06-20T08:49:54.973Z,1007.43
2019-06-20T08:50:56.829Z,1007.42
2019-06-20T08:51:56.198Z,1007.40
2019-06-20T08:52:56.146Z,1007.36
2019-06-20T08:53:55.839Z,1007.33
2019-06-20T08:54:56.640Z,1007.39
2019-06-20T08:55:55.994Z,1007.40
2019-06-20T08:56:56.096Z,1007.41
2019-06-20T08:57:55.886Z,1007.35
2019-06-20T08:58:55.755Z,1007.40
2019-06-20T08:59:56.014Z,1007.37
2019-06-20T09:00:55.985Z,1007.38
2019-06-20T09:01:57.946Z,1007.39
2019-06-20T09:02:55.675Z,1007.36
2019-06-20T09:03:55.662Z,1007.38
2019-06-20T09:04:55.211Z,1007.39
2019-06-20T09:05:55.451Z,1007.40
2019-06-20T09:06:56.947Z,1007.47
2019-06-20T09:07:55.369Z,1007.46
2019-06-20T09:08:56.404Z,1007.47
2019-06-20T09:09:55.864Z,1007.45
2019-06-20T09:10:55.707Z,1007.45
2019-06-20T09:11:55.387Z,1007.47
2019-06-20T09:12:55.121Z,1007.44
2019-06-20T09:13:55.454Z,1007.43
2019-06-20T09:14:55.144Z,1007.44
2019-06-20T09:15:54.955Z,1007.50
2019-06-20T09:16:54.991Z,1007.47
2019-06-20T09:17:55.201Z,1007.44
2019-06-20T09:18:55.346Z,1007.46
2019-06-20T09:19:55.914Z,1007.48
2019-06-20T09:20:55.992Z,1007.45
2019-06-20T09:21:55.737Z,1007.45
2019-06-20T09:22:55.267Z,1007.40
2019-06-20T09:23:55.703Z,1007.45
2019-06-20T09:24:55.125Z,1007.46
2019-06-20T09:25:55.929Z,1007.46
2019-06-20T09:26:55.446Z,1007.44
2019-06-20T09:27:55.987Z,1007.45
2019-06-20T09:28:55.649Z,1007.45
2019-06-20T09:29:56.190Z,1007.44
2019-06-20T09:30:55.184Z,1007.46
2019-06-20T09:31:55.656Z,1007.48
2019-06-20T09:32:55.576Z,1007.50
2019-06-20T09:33:55.791Z,1007.45
2019-06-20T09:34:54.811Z,1007.46
2019-06-20T09:35:55.615Z,1007.50
2019-06-20T09:36:55.184Z,1007.53
2019-06-20T09:37:55.153Z,1007.51
2019-06-20T09:38:55.121Z,1007.48
2019-06-20T09:39:54.839Z,1007.46
2019-06-20T09:40:54.932Z,1007.50
2019-06-20T09:41:54.845Z,1007.51
2019-06-20T09:42:54.833Z,1007.55
2019-06-20T09:43:54.840Z,1007.55
2019-06-20T09:44:54.851Z,1007.59
2019-06-20T09:45:56.026Z,1007.56
2019-06-20T09:46:56.334Z,1007.57
2019-06-20T09:47:56.029Z,1007.58
2019-06-20T09:48:55.602Z,1007.58
2019-06-20T09:49:56.019Z,1007.58
2019-06-20T09:50:54.855Z,1007.64
2019-06-20T09:51:54.865Z,1007.65
2019-06-20T09:52:56.586Z,1007.67
2019-06-20T09:53:56.280Z,1007.67
2019-06-20T09:54:56.061Z,1007.69
2019-06-20T09:55:55.682Z,1007.66
2019-06-20T09:56:56.515Z,1007.69
2019-06-20T09:57:55.914Z,1007.67
2019-06-20T09:58:55.298Z,1007.66
2019-06-20T10:00:05.881Z,1007.70
2019-06-20T10:00:55.185Z,1007.67
2019-06-20T10:01:56.375Z,1007.65
2019-06-20T10:02:56.256Z,1007.64
2019-06-20T10:03:55.102Z,1007.65
2019-06-20T10:04:54.933Z,1007.66
2019-06-20T10:05:56.598Z,1007.62
2019-06-20T10:06:54.920Z,1007.65
2019-06-20T10:07:55.242Z,1007.64
2019-06-20T10:08:54.915Z,1007.61
2019-06-20T10:09:56.326Z,1007.59
2019-06-20T10:10:56.216Z,1007.56
2019-06-20T10:11:56.078Z,1007.56
2019-06-20T10:12:55.877Z,1007.57
2019-06-20T10:13:55.988Z,1007.61
2019-06-20T10:14:56.166Z,1007.57
2019-06-20T10:15:55.698Z,1007.55
2019-06-20T10:16:56.572Z,1007.60
2019-06-20T10:17:54.950Z,1007.57
2019-06-20T10:18:56.477Z,1007.54
2019-06-20T10:19:56.237Z,1007.54
2019-06-20T10:20:54.958Z,1007.56
2019-06-20T10:21:55.997Z,1007.55
2019-06-20T10:22:54.974Z,1007.57
2019-06-20T10:23:56.035Z,1007.58
2019-06-20T10:24:54.959Z,1007.64
2019-06-20T10:25:54.966Z,1007.59
2019-06-20T10:26:54.980Z,1007.59
2019-06-20T10:27:54.969Z,1007.61
2019-06-20T10:28:55.035Z,1007.58
2019-06-20T10:29:55.002Z,1007.55
2019-06-20T10:30:55.007Z,1007.57
2019-06-20T10:31:55.006Z,1007.54
2019-06-20T10:32:54.985Z,1007.57
2019-06-20T10:33:55.006Z,1007.54
2019-06-20T10:34:55.037Z,1007.61
2019-06-20T10:35:55.018Z,1007.60
2019-06-20T10:36:54.997Z,1007.58
2019-06-20T10:37:55.012Z,1007.55
2019-06-20T10:38:56.819Z,1007.58
2019-06-20T10:39:56.779Z,1007.59
2019-06-20T10:40:58.617Z,1007.57
2019-06-20T10:41:55.110Z,1007.58
2019-06-20T10:42:55.022Z,1007.56
2019-06-20T10:43:56.430Z,1007.54
2019-06-20T10:44:56.193Z,1007.50
2019-06-20T10:45:55.037Z,1007.53
2019-06-20T10:46:55.048Z,1007.54
2019-06-20T10:47:55.043Z,1007.53
2019-06-20T10:48:55.040Z,1007.54
2019-06-20T10:49:55.036Z,1007.51
2019-06-20T10:50:55.048Z,1007.54
2019-06-20T10:51:55.047Z,1007.54
2019-06-20T10:52:55.058Z,1007.57
2019-06-20T10:53:55.055Z,1007.60
2019-06-20T10:54:55.059Z,1007.59
2019-06-20T10:55:55.073Z,1007.55
2019-06-20T10:56:55.080Z,1007.59
2019-06-20T10:57:55.066Z,1007.59
2019-06-20T10:58:55.088Z,1007.57
2019-06-20T10:59:55.077Z,1007.62
2019-06-20T11:00:55.090Z,1007.65
2019-06-20T11:01:55.079Z,1007.64
2019-06-20T11:02:55.082Z,1007.69
2019-06-20T11:03:55.092Z,1007.64
2019-06-20T11:04:55.122Z,1007.63
2019-06-20T11:05:55.095Z,1007.68
2019-06-20T11:06:55.096Z,1007.71
2019-06-20T11:07:55.114Z,1007.69
2019-06-20T11:08:55.117Z,1007.66
2019-06-20T11:09:55.116Z,1007.71
2019-06-20T11:10:55.126Z,1007.70
2019-06-20T11:11:55.132Z,1007.71
2019-06-20T11:12:56.342Z,1007.72
2019-06-20T11:13:55.132Z,1007.78
2019-06-20T11:14:55.132Z,1007.73
2019-06-20T11:15:55.131Z,1007.73
2019-06-20T11:16:55.364Z,1007.71
2019-06-20T11:17:56.577Z,1007.69
2019-06-20T11:18:55.168Z,1007.66
2019-06-20T11:19:55.143Z,1007.65
2019-06-20T11:20:55.159Z,1007.64
2019-06-20T11:21:55.155Z,1007.62
2019-06-20T11:22:55.164Z,1007.61
2019-06-20T11:23:55.165Z,1007.63
2019-06-20T11:24:55.171Z,1007.61
2019-06-20T11:25:55.183Z,1007.62
2019-06-20T11:26:55.171Z,1007.61
2019-06-20T11:27:55.176Z,1007.61
2019-06-20T11:28:55.859Z,1007.60
2019-06-20T11:29:55.187Z,1007.60
2019-06-20T11:31:00.090Z,1007.62
2019-06-20T11:31:55.188Z,1007.60
2019-06-20T11:32:55.192Z,1007.63
2019-06-20T11:33:55.210Z,1007.63
2019-06-20T11:34:55.201Z,1007.57
2019-06-20T11:35:55.204Z,1007.59
2019-06-20T11:36:55.223Z,1007.57
2019-06-20T11:37:55.232Z,1007.54
2019-06-20T11:38:55.216Z,1007.56
2019-06-20T11:39:55.222Z,1007.57
2019-06-20T11:40:55.237Z,1007.56
2019-06-20T11:41:55.232Z,1007.54
2019-06-20T11:42:55.233Z,1007.57
2019-06-20T11:43:55.230Z,1007.56
2019-06-20T11:44:55.236Z,1007.55
2019-06-20T11:45:55.243Z,1007.56
2019-06-20T11:46:55.257Z,1007.56
2019-06-20T11:47:55.251Z,1007.53
2019-06-20T11:48:55.277Z,1007.59
2019-06-20T11:49:55.270Z,1007.60
2019-06-20T11:50:55.264Z,1007.59
2019-06-20T11:51:55.262Z,1007.59
2019-06-20T11:52:55.266Z,1007.58
2019-06-20T11:53:55.291Z,1007.54
2019-06-20T11:54:55.282Z,1007.55
2019-06-20T11:55:55.283Z,1007.55
2019-06-20T11:56:55.311Z,1007.56
2019-06-20T11:57:55.310Z,1007.53
2019-06-20T11:58:55.307Z,1007.50
2019-06-20T11:59:55.293Z,1007.50
2019-06-20T12:01:03.527Z,1007.51
2019-06-20T12:01:55.316Z,1007.51
2019-06-20T12:02:55.307Z,1007.52
2019-06-20T12:03:55.327Z,1007.52
2019-06-20T12:04:55.347Z,1007.53
2019-06-20T12:05:55.357Z,1007.59